Startpagina
METAR-TAF:

METAR-TAF

Vliegvelden :

Amman, Jordanië

breedte: 31-59N, lengte: 035-59E, hoogte: 767 m

Actueel weer

Dit bericht is 6 minuten geleden gemaakt, om 21:00 UTC
Wind 5 kt uit het westzuidwesten
Temperatuur 28°C
Vochtigheid 20%
Druk 1017 hPa
Zicht: 5000 m
Heiigheid

METAR: OJAM 222100Z 25005KT 5000 HZ NSC 28/03 Q1017 NOSIG

Tijdstip: 00:06 (21:06 UTC)

Verwachting

Dit bericht is 4 uur en het 24 minuten geleden gemaakt, om 16:42 UTC
Verwachting geldig van 22 om 18 UTC tot 23 om 24 UTC
Wind 8 kt uit het noordwesten
Zicht: 5000 m
Heiigheid
Kans 40% :
Tijdelijke
van 23 om 02 UTC tot 23 om 06 UTC
Wind 1 kt uit variabele richting
Zicht: 3000 m
Tijdelijke
van 23 om 10 UTC tot 23 om 18 UTC
Wind 10 kt uit het westen met uitschieters tot 20 kt
Zicht: 3000 m
Stuifstof

TAF: OJAM 221642Z 2218/2324 31008KT 5000 HZ NSC PROB40 TEMPO 2302/2306 VRB01KT 3000 TEMPO 2310/2318 28010G20KT 3000 BLDU

Waarnemingen en weersverwachtingen van meer dan 4000 vliegvelden (METAR en TAF).

De beschikbare stations zijn de gele en rode punten op de kaart.

Ga met uw muis naar het station om de naam te zien.

Klik dan om waarnemingen en weersverwachtingen te zien.

kaart wijzigen: klik op de groene knoppen met een zwart kruis om in te zoomen, op de groene knop met een streepje om uit te zoomen of op de groene pijlen voor aangrenzende kaarten.


METAR-TAF: